sensor_id;sensor_type;location;lat;lon;timestamp;P1;durP1;ratioP1;P2;durP2;ratioP2
49828;SDS011;35723;51.194;5.112;2023-04-19T00:00:37;27.58;;;18.05;;
49828;SDS011;35723;51.194;5.112;2023-04-19T00:03:04;30.77;;;19.75;;
49828;SDS011;35723;51.194;5.112;2023-04-19T00:05:31;32.30;;;19.65;;
49828;SDS011;35723;51.194;5.112;2023-04-19T00:07:57;30.67;;;18.45;;
49828;SDS011;35723;51.194;5.112;2023-04-19T00:10:23;29.40;;;19.63;;
49828;SDS011;35723;51.194;5.112;2023-04-19T00:12:48;28.10;;;18.88;;
49828;SDS011;35723;51.194;5.112;2023-04-19T00:15:14;29.67;;;19.10;;
49828;SDS011;35723;51.194;5.112;2023-04-19T00:17:40;30.05;;;19.27;;
49828;SDS011;35723;51.194;5.112;2023-04-19T00:20:06;30.25;;;19.45;;
49828;SDS011;35723;51.194;5.112;2023-04-19T00:22:32;29.40;;;19.20;;
49828;SDS011;35723;51.194;5.112;2023-04-19T00:24:58;32.75;;;20.08;;
49828;SDS011;35723;51.194;5.112;2023-04-19T00:27:24;33.80;;;19.95;;
49828;SDS011;35723;51.194;5.112;2023-04-19T00:29:49;28.00;;;18.98;;
49828;SDS011;35723;51.194;5.112;2023-04-19T00:32:15;30.67;;;19.50;;
49828;SDS011;35723;51.194;5.112;2023-04-19T00:34:41;29.42;;;19.63;;
49828;SDS011;35723;51.194;5.112;2023-04-19T00:37:07;29.55;;;19.27;;
49828;SDS011;35723;51.194;5.112;2023-04-19T00:39:33;30.50;;;20.13;;
49828;SDS011;35723;51.194;5.112;2023-04-19T00:41:59;31.83;;;20.15;;
49828;SDS011;35723;51.194;5.112;2023-04-19T00:44:25;32.28;;;20.25;;
49828;SDS011;35723;51.194;5.112;2023-04-19T00:46:51;33.30;;;21.30;;
49828;SDS011;35723;51.194;5.112;2023-04-19T00:49:17;33.65;;;20.77;;
49828;SDS011;35723;51.194;5.112;2023-04-19T00:51:45;29.85;;;20.10;;
49828;SDS011;35723;51.194;5.112;2023-04-19T00:54:12;33.17;;;20.73;;
49828;SDS011;35723;51.194;5.112;2023-04-19T00:56:39;31.98;;;20.23;;
49828;SDS011;35723;51.194;5.112;2023-04-19T00:59:05;30.77;;;20.13;;
49828;SDS011;35723;51.194;5.112;2023-04-19T01:01:31;29.90;;;19.77;;
49828;SDS011;35723;51.194;5.112;2023-04-19T01:04:00;32.13;;;21.23;;
49828;SDS011;35723;51.194;5.112;2023-04-19T01:06:26;32.05;;;21.15;;
49828;SDS011;35723;51.194;5.112;2023-04-19T01:08:54;29.20;;;19.73;;
49828;SDS011;35723;51.194;5.112;2023-04-19T01:11:19;31.25;;;20.48;;
49828;SDS011;35723;51.194;5.112;2023-04-19T01:13:47;31.08;;;20.02;;
49828;SDS011;35723;51.194;5.112;2023-04-19T01:16:12;31.52;;;20.58;;
49828;SDS011;35723;51.194;5.112;2023-04-19T01:18:38;30.65;;;20.38;;
49828;SDS011;35723;51.194;5.112;2023-04-19T01:21:06;33.40;;;20.55;;
49828;SDS011;35723;51.194;5.112;2023-04-19T01:23:32;31.35;;;20.38;;
49828;SDS011;35723;51.194;5.112;2023-04-19T01:25:59;32.10;;;20.60;;
49828;SDS011;35723;51.194;5.112;2023-04-19T01:28:26;31.73;;;20.92;;
49828;SDS011;35723;51.194;5.112;2023-04-19T01:30:52;33.33;;;20.67;;
49828;SDS011;35723;51.194;5.112;2023-04-19T01:33:19;33.78;;;21.10;;
49828;SDS011;35723;51.194;5.112;2023-04-19T01:35:45;30.50;;;20.20;;
49828;SDS011;35723;51.194;5.112;2023-04-19T01:38:12;32.20;;;20.58;;
49828;SDS011;35723;51.194;5.112;2023-04-19T01:40:38;33.20;;;20.40;;
49828;SDS011;35723;51.194;5.112;2023-04-19T01:43:03;32.42;;;20.48;;
49828;SDS011;35723;51.194;5.112;2023-04-19T01:45:30;32.30;;;21.23;;
49828;SDS011;35723;51.194;5.112;2023-04-19T01:47:58;33.00;;;20.52;;
49828;SDS011;35723;51.194;5.112;2023-04-19T01:50:30;33.55;;;20.33;;
49828;SDS011;35723;51.194;5.112;2023-04-19T01:52:56;31.55;;;20.52;;
49828;SDS011;35723;51.194;5.112;2023-04-19T01:55:22;31.00;;;19.95;;
49828;SDS011;35723;51.194;5.112;2023-04-19T01:57:48;31.23;;;20.20;;
49828;SDS011;35723;51.194;5.112;2023-04-19T02:00:14;31.45;;;20.05;;
49828;SDS011;35723;51.194;5.112;2023-04-19T02:02:42;29.80;;;19.35;;
49828;SDS011;35723;51.194;5.112;2023-04-19T02:05:07;31.33;;;19.75;;
49828;SDS011;35723;51.194;5.112;2023-04-19T02:07:33;30.08;;;18.70;;
49828;SDS011;35723;51.194;5.112;2023-04-19T02:09:59;32.58;;;20.45;;
49828;SDS011;35723;51.194;5.112;2023-04-19T02:12:25;30.58;;;19.15;;
49828;SDS011;35723;51.194;5.112;2023-04-19T02:14:57;31.60;;;20.27;;
49828;SDS011;35723;51.194;5.112;2023-04-19T02:17:26;31.17;;;19.65;;
49828;SDS011;35723;51.194;5.112;2023-04-19T02:19:52;33.75;;;20.05;;
49828;SDS011;35723;51.194;5.112;2023-04-19T02:22:18;33.72;;;19.83;;
49828;SDS011;35723;51.194;5.112;2023-04-19T02:24:44;31.05;;;19.42;;
49828;SDS011;35723;51.194;5.112;2023-04-19T02:27:11;33.00;;;20.92;;
49828;SDS011;35723;51.194;5.112;2023-04-19T02:29:37;32.83;;;20.88;;
49828;SDS011;35723;51.194;5.112;2023-04-19T02:32:03;32.55;;;20.77;;
49828;SDS011;35723;51.194;5.112;2023-04-19T02:34:34;35.45;;;21.30;;
49828;SDS011;35723;51.194;5.112;2023-04-19T02:37:00;32.22;;;20.88;;
49828;SDS011;35723;51.194;5.112;2023-04-19T02:39:26;33.35;;;20.70;;
49828;SDS011;35723;51.194;5.112;2023-04-19T02:41:51;33.08;;;20.23;;
49828;SDS011;35723;51.194;5.112;2023-04-19T02:44:17;32.63;;;20.95;;
49828;SDS011;35723;51.194;5.112;2023-04-19T02:46:49;31.98;;;20.42;;
49828;SDS011;35723;51.194;5.112;2023-04-19T02:49:18;35.17;;;20.95;;
49828;SDS011;35723;51.194;5.112;2023-04-19T02:51:45;32.38;;;21.20;;
49828;SDS011;35723;51.194;5.112;2023-04-19T02:54:11;33.60;;;21.65;;
49828;SDS011;35723;51.194;5.112;2023-04-19T02:56:37;36.00;;;21.55;;
49828;SDS011;35723;51.194;5.112;2023-04-19T02:59:03;33.70;;;20.95;;
49828;SDS011;35723;51.194;5.112;2023-04-19T03:01:29;35.20;;;21.83;;
49828;SDS011;35723;51.194;5.112;2023-04-19T03:03:55;32.90;;;20.98;;
49828;SDS011;35723;51.194;5.112;2023-04-19T03:06:21;34.42;;;21.70;;
49828;SDS011;35723;51.194;5.112;2023-04-19T03:08:47;35.10;;;22.08;;
49828;SDS011;35723;51.194;5.112;2023-04-19T03:11:16;33.92;;;21.33;;
49828;SDS011;35723;51.194;5.112;2023-04-19T03:13:42;35.47;;;21.33;;
49828;SDS011;35723;51.194;5.112;2023-04-19T03:16:08;34.80;;;21.98;;
49828;SDS011;35723;51.194;5.112;2023-04-19T03:18:34;32.20;;;20.67;;
49828;SDS011;35723;51.194;5.112;2023-04-19T03:21:00;34.03;;;21.45;;
49828;SDS011;35723;51.194;5.112;2023-04-19T03:23:26;36.03;;;21.95;;
49828;SDS011;35723;51.194;5.112;2023-04-19T03:25:51;36.28;;;21.42;;
49828;SDS011;35723;51.194;5.112;2023-04-19T03:28:17;32.97;;;21.90;;
49828;SDS011;35723;51.194;5.112;2023-04-19T03:30:43;33.97;;;21.25;;
49828;SDS011;35723;51.194;5.112;2023-04-19T03:33:09;35.13;;;21.17;;
49828;SDS011;35723;51.194;5.112;2023-04-19T03:35:34;38.88;;;21.27;;
49828;SDS011;35723;51.194;5.112;2023-04-19T03:38:00;38.05;;;21.25;;
49828;SDS011;35723;51.194;5.112;2023-04-19T03:40:25;37.30;;;21.08;;
49828;SDS011;35723;51.194;5.112;2023-04-19T03:42:51;34.67;;;21.98;;
49828;SDS011;35723;51.194;5.112;2023-04-19T03:45:17;32.53;;;20.73;;
49828;SDS011;35723;51.194;5.112;2023-04-19T03:47:43;32.80;;;20.98;;
49828;SDS011;35723;51.194;5.112;2023-04-19T03:50:09;32.28;;;20.73;;
49828;SDS011;35723;51.194;5.112;2023-04-19T03:52:35;34.42;;;21.88;;
49828;SDS011;35723;51.194;5.112;2023-04-19T03:55:01;32.58;;;20.25;;
49828;SDS011;35723;51.194;5.112;2023-04-19T03:57:26;33.22;;;20.83;;
49828;SDS011;35723;51.194;5.112;2023-04-19T03:59:52;37.13;;;21.38;;
49828;SDS011;35723;51.194;5.112;2023-04-19T04:02:17;32.95;;;20.20;;
49828;SDS011;35723;51.194;5.112;2023-04-19T04:04:43;32.00;;;20.30;;
49828;SDS011;35723;51.194;5.112;2023-04-19T04:07:09;35.85;;;22.48;;
49828;SDS011;35723;51.194;5.112;2023-04-19T04:09:34;32.70;;;20.52;;
49828;SDS011;35723;51.194;5.112;2023-04-19T04:12:00;35.00;;;21.30;;
49828;SDS011;35723;51.194;5.112;2023-04-19T04:14:25;35.25;;;21.80;;
49828;SDS011;35723;51.194;5.112;2023-04-19T04:16:51;34.92;;;21.23;;
49828;SDS011;35723;51.194;5.112;2023-04-19T04:19:17;33.72;;;20.98;;
49828;SDS011;35723;51.194;5.112;2023-04-19T04:21:43;35.72;;;19.77;;
49828;SDS011;35723;51.194;5.112;2023-04-19T04:24:09;35.92;;;21.02;;
49828;SDS011;35723;51.194;5.112;2023-04-19T04:26:34;34.40;;;21.40;;
49828;SDS011;35723;51.194;5.112;2023-04-19T04:29:03;34.50;;;21.52;;
49828;SDS011;35723;51.194;5.112;2023-04-19T04:31:29;35.15;;;21.02;;
49828;SDS011;35723;51.194;5.112;2023-04-19T04:33:55;35.60;;;21.00;;
49828;SDS011;35723;51.194;5.112;2023-04-19T04:36:21;35.35;;;21.02;;
49828;SDS011;35723;51.194;5.112;2023-04-19T04:38:47;32.92;;;20.70;;
49828;SDS011;35723;51.194;5.112;2023-04-19T04:41:13;35.85;;;21.23;;
49828;SDS011;35723;51.194;5.112;2023-04-19T04:43:38;33.83;;;21.00;;
49828;SDS011;35723;51.194;5.112;2023-04-19T04:46:04;34.80;;;21.20;;
49828;SDS011;35723;51.194;5.112;2023-04-19T04:48:30;34.35;;;21.20;;
49828;SDS011;35723;51.194;5.112;2023-04-19T04:50:56;34.15;;;20.33;;
49828;SDS011;35723;51.194;5.112;2023-04-19T04:53:24;33.67;;;19.98;;
49828;SDS011;35723;51.194;5.112;2023-04-19T04:55:51;34.05;;;20.02;;
49828;SDS011;35723;51.194;5.112;2023-04-19T04:58:18;34.13;;;21.15;;
49828;SDS011;35723;51.194;5.112;2023-04-19T05:00:44;33.17;;;19.52;;
49828;SDS011;35723;51.194;5.112;2023-04-19T05:03:10;34.10;;;19.80;;
49828;SDS011;35723;51.194;5.112;2023-04-19T05:05:36;34.95;;;20.85;;
49828;SDS011;35723;51.194;5.112;2023-04-19T05:08:02;33.30;;;19.35;;
49828;SDS011;35723;51.194;5.112;2023-04-19T05:10:28;32.85;;;19.70;;
49828;SDS011;35723;51.194;5.112;2023-04-19T05:12:53;35.90;;;19.20;;
49828;SDS011;35723;51.194;5.112;2023-04-19T05:15:19;32.53;;;18.70;;
49828;SDS011;35723;51.194;5.112;2023-04-19T05:17:45;33.00;;;19.63;;
49828;SDS011;35723;51.194;5.112;2023-04-19T05:20:10;31.60;;;19.30;;
49828;SDS011;35723;51.194;5.112;2023-04-19T05:22:36;33.28;;;19.17;;
49828;SDS011;35723;51.194;5.112;2023-04-19T05:25:02;31.65;;;18.20;;
49828;SDS011;35723;51.194;5.112;2023-04-19T05:27:28;29.70;;;18.13;;
49828;SDS011;35723;51.194;5.112;2023-04-19T05:29:54;30.20;;;17.65;;
49828;SDS011;35723;51.194;5.112;2023-04-19T05:32:19;28.85;;;16.85;;
49828;SDS011;35723;51.194;5.112;2023-04-19T05:34:45;30.15;;;17.58;;
49828;SDS011;35723;51.194;5.112;2023-04-19T05:37:11;29.75;;;17.65;;
49828;SDS011;35723;51.194;5.112;2023-04-19T05:39:36;30.30;;;18.10;;
49828;SDS011;35723;51.194;5.112;2023-04-19T05:42:02;29.63;;;17.13;;
49828;SDS011;35723;51.194;5.112;2023-04-19T05:44:28;30.55;;;17.38;;
49828;SDS011;35723;51.194;5.112;2023-04-19T05:46:53;28.40;;;16.67;;
49828;SDS011;35723;51.194;5.112;2023-04-19T05:49:19;28.50;;;17.25;;
49828;SDS011;35723;51.194;5.112;2023-04-19T05:51:45;31.30;;;17.45;;
49828;SDS011;35723;51.194;5.112;2023-04-19T05:54:10;27.10;;;16.25;;
49828;SDS011;35723;51.194;5.112;2023-04-19T05:56:38;31.67;;;16.33;;
49828;SDS011;35723;51.194;5.112;2023-04-19T05:59:03;30.33;;;15.93;;
49828;SDS011;35723;51.194;5.112;2023-04-19T06:01:30;26.90;;;15.45;;
49828;SDS011;35723;51.194;5.112;2023-04-19T06:03:56;29.55;;;16.15;;
49828;SDS011;35723;51.194;5.112;2023-04-19T06:06:22;26.95;;;15.07;;
49828;SDS011;35723;51.194;5.112;2023-04-19T06:08:47;26.45;;;14.80;;
49828;SDS011;35723;51.194;5.112;2023-04-19T06:11:13;25.85;;;14.80;;
49828;SDS011;35723;51.194;5.112;2023-04-19T06:13:39;25.63;;;14.18;;
49828;SDS011;35723;51.194;5.112;2023-04-19T06:16:05;26.35;;;14.15;;
49828;SDS011;35723;51.194;5.112;2023-04-19T06:18:32;25.85;;;14.32;;
49828;SDS011;35723;51.194;5.112;2023-04-19T06:20:57;25.27;;;13.75;;
49828;SDS011;35723;51.194;5.112;2023-04-19T06:23:23;26.30;;;13.88;;
49828;SDS011;35723;51.194;5.112;2023-04-19T06:25:49;26.67;;;13.48;;
49828;SDS011;35723;51.194;5.112;2023-04-19T06:28:15;22.45;;;12.60;;
49828;SDS011;35723;51.194;5.112;2023-04-19T06:30:40;23.55;;;12.85;;
49828;SDS011;35723;51.194;5.112;2023-04-19T06:33:06;22.95;;;12.85;;
49828;SDS011;35723;51.194;5.112;2023-04-19T06:35:32;23.17;;;12.05;;
49828;SDS011;35723;51.194;5.112;2023-04-19T06:37:57;22.58;;;12.43;;
49828;SDS011;35723;51.194;5.112;2023-04-19T06:40:23;22.00;;;11.88;;
49828;SDS011;35723;51.194;5.112;2023-04-19T06:42:50;21.40;;;11.38;;
49828;SDS011;35723;51.194;5.112;2023-04-19T06:45:16;24.20;;;10.80;;
49828;SDS011;35723;51.194;5.112;2023-04-19T06:47:42;20.42;;;10.57;;
49828;SDS011;35723;51.194;5.112;2023-04-19T06:50:08;20.48;;;10.40;;
49828;SDS011;35723;51.194;5.112;2023-04-19T06:52:35;20.48;;;10.05;;
49828;SDS011;35723;51.194;5.112;2023-04-19T06:55:01;17.90;;;8.93;;
49828;SDS011;35723;51.194;5.112;2023-04-19T06:57:26;18.67;;;9.15;;
49828;SDS011;35723;51.194;5.112;2023-04-19T06:59:53;19.70;;;9.18;;
49828;SDS011;35723;51.194;5.112;2023-04-19T07:02:19;19.27;;;9.10;;
49828;SDS011;35723;51.194;5.112;2023-04-19T07:04:45;17.58;;;9.32;;
49828;SDS011;35723;51.194;5.112;2023-04-19T07:07:12;18.63;;;9.00;;
49828;SDS011;35723;51.194;5.112;2023-04-19T07:09:37;19.27;;;9.13;;
49828;SDS011;35723;51.194;5.112;2023-04-19T07:12:04;20.90;;;9.18;;
49828;SDS011;35723;51.194;5.112;2023-04-19T07:14:30;18.20;;;8.70;;
49828;SDS011;35723;51.194;5.112;2023-04-19T07:16:56;21.83;;;8.35;;
49828;SDS011;35723;51.194;5.112;2023-04-19T07:19:22;18.27;;;8.88;;
49828;SDS011;35723;51.194;5.112;2023-04-19T07:21:47;18.17;;;8.50;;
49828;SDS011;35723;51.194;5.112;2023-04-19T07:24:14;18.38;;;8.50;;
49828;SDS011;35723;51.194;5.112;2023-04-19T07:26:40;18.15;;;8.27;;
49828;SDS011;35723;51.194;5.112;2023-04-19T07:29:05;16.45;;;7.95;;
49828;SDS011;35723;51.194;5.112;2023-04-19T07:31:31;17.77;;;8.00;;
49828;SDS011;35723;51.194;5.112;2023-04-19T07:33:57;17.52;;;8.43;;
49828;SDS011;35723;51.194;5.112;2023-04-19T07:36:22;17.83;;;7.93;;
49828;SDS011;35723;51.194;5.112;2023-04-19T07:38:48;17.65;;;8.13;;
49828;SDS011;35723;51.194;5.112;2023-04-19T07:41:14;17.25;;;8.27;;
49828;SDS011;35723;51.194;5.112;2023-04-19T07:43:39;18.30;;;8.38;;
49828;SDS011;35723;51.194;5.112;2023-04-19T07:46:12;17.15;;;8.18;;
49828;SDS011;35723;51.194;5.112;2023-04-19T07:48:40;17.48;;;7.88;;
49828;SDS011;35723;51.194;5.112;2023-04-19T07:53:35;18.25;;;8.27;;
49828;SDS011;35723;51.194;5.112;2023-04-19T07:56:01;16.88;;;8.07;;
49828;SDS011;35723;51.194;5.112;2023-04-19T07:58:27;17.10;;;8.32;;
49828;SDS011;35723;51.194;5.112;2023-04-19T08:00:53;16.52;;;8.07;;
49828;SDS011;35723;51.194;5.112;2023-04-19T08:03:18;16.70;;;7.82;;
49828;SDS011;35723;51.194;5.112;2023-04-19T08:05:44;17.40;;;8.05;;
49828;SDS011;35723;51.194;5.112;2023-04-19T08:08:10;19.33;;;8.40;;
49828;SDS011;35723;51.194;5.112;2023-04-19T08:10:35;18.35;;;7.82;;
49828;SDS011;35723;51.194;5.112;2023-04-19T08:13:01;17.30;;;7.70;;
49828;SDS011;35723;51.194;5.112;2023-04-19T08:15:27;16.98;;;8.02;;
49828;SDS011;35723;51.194;5.112;2023-04-19T08:17:52;19.70;;;8.63;;
49828;SDS011;35723;51.194;5.112;2023-04-19T08:20:18;20.15;;;8.18;;
49828;SDS011;35723;51.194;5.112;2023-04-19T08:22:45;16.20;;;8.13;;
49828;SDS011;35723;51.194;5.112;2023-04-19T08:25:11;17.33;;;8.35;;
49828;SDS011;35723;51.194;5.112;2023-04-19T08:27:37;16.75;;;7.72;;
49828;SDS011;35723;51.194;5.112;2023-04-19T08:30:03;15.27;;;7.90;;
49828;SDS011;35723;51.194;5.112;2023-04-19T08:32:29;18.33;;;8.00;;
49828;SDS011;35723;51.194;5.112;2023-04-19T08:34:54;20.20;;;8.45;;
49828;SDS011;35723;51.194;5.112;2023-04-19T08:37:21;17.58;;;7.65;;
49828;SDS011;35723;51.194;5.112;2023-04-19T08:39:46;19.55;;;8.60;;
49828;SDS011;35723;51.194;5.112;2023-04-19T08:42:12;18.13;;;7.93;;
49828;SDS011;35723;51.194;5.112;2023-04-19T08:44:38;20.42;;;8.18;;
49828;SDS011;35723;51.194;5.112;2023-04-19T08:47:04;16.58;;;7.60;;
49828;SDS011;35723;51.194;5.112;2023-04-19T08:49:34;18.88;;;8.10;;
49828;SDS011;35723;51.194;5.112;2023-04-19T08:52:01;17.38;;;8.02;;
49828;SDS011;35723;51.194;5.112;2023-04-19T08:54:30;18.17;;;8.07;;
49828;SDS011;35723;51.194;5.112;2023-04-19T08:57:00;15.68;;;7.70;;
49828;SDS011;35723;51.194;5.112;2023-04-19T08:59:27;16.98;;;7.80;;
49828;SDS011;35723;51.194;5.112;2023-04-19T09:01:54;18.10;;;8.00;;
49828;SDS011;35723;51.194;5.112;2023-04-19T09:04:23;18.23;;;8.10;;
49828;SDS011;35723;51.194;5.112;2023-04-19T09:06:49;18.17;;;7.68;;
49828;SDS011;35723;51.194;5.112;2023-04-19T09:09:19;17.73;;;7.60;;
49828;SDS011;35723;51.194;5.112;2023-04-19T09:11:45;16.60;;;7.40;;
49828;SDS011;35723;51.194;5.112;2023-04-19T09:14:12;15.90;;;7.90;;
49828;SDS011;35723;51.194;5.112;2023-04-19T09:16:39;18.02;;;7.65;;
49828;SDS011;35723;51.194;5.112;2023-04-19T09:19:05;17.70;;;7.72;;
49828;SDS011;35723;51.194;5.112;2023-04-19T09:21:33;16.67;;;8.13;;
49828;SDS011;35723;51.194;5.112;2023-04-19T09:24:00;17.23;;;7.60;;
49828;SDS011;35723;51.194;5.112;2023-04-19T09:26:26;16.73;;;7.85;;
49828;SDS011;35723;51.194;5.112;2023-04-19T09:29:04;15.07;;;7.35;;
49828;SDS011;35723;51.194;5.112;2023-04-19T09:31:32;15.23;;;7.25;;
49828;SDS011;35723;51.194;5.112;2023-04-19T09:34:15;17.13;;;7.57;;
49828;SDS011;35723;51.194;5.112;2023-04-19T09:36:42;20.20;;;7.30;;
49828;SDS011;35723;51.194;5.112;2023-04-19T09:39:08;16.98;;;7.35;;
49828;SDS011;35723;51.194;5.112;2023-04-19T09:41:35;19.70;;;7.38;;
49828;SDS011;35723;51.194;5.112;2023-04-19T09:44:18;17.52;;;7.60;;
49828;SDS011;35723;51.194;5.112;2023-04-19T09:46:44;15.35;;;7.45;;
49828;SDS011;35723;51.194;5.112;2023-04-19T09:51:45;15.73;;;7.45;;
49828;SDS011;35723;51.194;5.112;2023-04-19T09:54:13;15.95;;;7.22;;
49828;SDS011;35723;51.194;5.112;2023-04-19T09:56:40;14.27;;;7.10;;
49828;SDS011;35723;51.194;5.112;2023-04-19T09:59:06;16.90;;;7.72;;
49828;SDS011;35723;51.194;5.112;2023-04-19T10:01:41;19.50;;;7.05;;
49828;SDS011;35723;51.194;5.112;2023-04-19T10:04:09;17.23;;;7.00;;
49828;SDS011;35723;51.194;5.112;2023-04-19T10:06:36;16.48;;;7.05;;
49828;SDS011;35723;51.194;5.112;2023-04-19T10:09:04;16.95;;;7.18;;
49828;SDS011;35723;51.194;5.112;2023-04-19T10:11:31;13.88;;;7.05;;
49828;SDS011;35723;51.194;5.112;2023-04-19T10:14:07;17.42;;;6.68;;
49828;SDS011;35723;51.194;5.112;2023-04-19T10:16:35;12.63;;;6.38;;
49828;SDS011;35723;51.194;5.112;2023-04-19T10:19:08;14.98;;;6.40;;
49828;SDS011;35723;51.194;5.112;2023-04-19T10:21:36;14.75;;;5.95;;
49828;SDS011;35723;51.194;5.112;2023-04-19T10:24:02;15.90;;;6.00;;
49828;SDS011;35723;51.194;5.112;2023-04-19T10:26:29;14.85;;;6.28;;
49828;SDS011;35723;51.194;5.112;2023-04-19T10:28:55;15.38;;;6.28;;
49828;SDS011;35723;51.194;5.112;2023-04-19T10:31:21;13.35;;;5.88;;
49828;SDS011;35723;51.194;5.112;2023-04-19T10:33:49;15.00;;;5.78;;
49828;SDS011;35723;51.194;5.112;2023-04-19T10:36:18;16.20;;;5.80;;
49828;SDS011;35723;51.194;5.112;2023-04-19T10:38:48;15.88;;;5.15;;
49828;SDS011;35723;51.194;5.112;2023-04-19T10:41:19;13.45;;;5.00;;
49828;SDS011;35723;51.194;5.112;2023-04-19T10:51:19;14.18;;;5.22;;
49828;SDS011;35723;51.194;5.112;2023-04-19T10:56:19;13.90;;;5.15;;
49828;SDS011;35723;51.194;5.112;2023-04-19T11:01:41;14.38;;;5.90;;
49828;SDS011;35723;51.194;5.112;2023-04-19T11:04:12;12.65;;;5.22;;
49828;SDS011;35723;51.194;5.112;2023-04-19T11:12:01;10.00;;;4.78;;
49828;SDS011;35723;51.194;5.112;2023-04-19T11:14:29;11.48;;;4.47;;
49828;SDS011;35723;51.194;5.112;2023-04-19T11:17:01;11.88;;;4.55;;
49828;SDS011;35723;51.194;5.112;2023-04-19T11:19:28;10.65;;;4.78;;
49828;SDS011;35723;51.194;5.112;2023-04-19T11:21:56;8.05;;;4.30;;
49828;SDS011;35723;51.194;5.112;2023-04-19T11:24:23;14.23;;;4.43;;
49828;SDS011;35723;51.194;5.112;2023-04-19T11:26:49;11.38;;;4.40;;
49828;SDS011;35723;51.194;5.112;2023-04-19T11:29:15;12.13;;;4.13;;
49828;SDS011;35723;51.194;5.112;2023-04-19T11:31:44;11.98;;;3.97;;
49828;SDS011;35723;51.194;5.112;2023-04-19T11:34:11;10.85;;;4.13;;
49828;SDS011;35723;51.194;5.112;2023-04-19T11:36:45;15.38;;;4.60;;
49828;SDS011;35723;51.194;5.112;2023-04-19T11:39:15;16.20;;;4.95;;
49828;SDS011;35723;51.194;5.112;2023-04-19T11:41:40;11.63;;;3.92;;
49828;SDS011;35723;51.194;5.112;2023-04-19T11:44:16;11.63;;;3.78;;
49828;SDS011;35723;51.194;5.112;2023-04-19T11:46:56;8.50;;;3.75;;
49828;SDS011;35723;51.194;5.112;2023-04-19T11:49:29;7.53;;;3.63;;
49828;SDS011;35723;51.194;5.112;2023-04-19T11:51:59;12.60;;;4.00;;
49828;SDS011;35723;51.194;5.112;2023-04-19T11:54:25;11.63;;;3.50;;
49828;SDS011;35723;51.194;5.112;2023-04-19T11:57:02;13.30;;;3.47;;
49828;SDS011;35723;51.194;5.112;2023-04-19T11:59:29;10.30;;;3.35;;
49828;SDS011;35723;51.194;5.112;2023-04-19T12:02:03;8.35;;;3.40;;
49828;SDS011;35723;51.194;5.112;2023-04-19T12:04:33;8.32;;;3.60;;
49828;SDS011;35723;51.194;5.112;2023-04-19T12:07:00;6.70;;;2.90;;
49828;SDS011;35723;51.194;5.112;2023-04-19T12:09:27;6.88;;;2.95;;
49828;SDS011;35723;51.194;5.112;2023-04-19T12:11:53;9.93;;;3.50;;
49828;SDS011;35723;51.194;5.112;2023-04-19T12:14:19;6.80;;;3.20;;
49828;SDS011;35723;51.194;5.112;2023-04-19T12:19:36;11.40;;;3.38;;
49828;SDS011;35723;51.194;5.112;2023-04-19T12:22:15;8.93;;;3.10;;
49828;SDS011;35723;51.194;5.112;2023-04-19T12:24:44;11.93;;;2.90;;
49828;SDS011;35723;51.194;5.112;2023-04-19T12:27:10;8.02;;;3.00;;
49828;SDS011;35723;51.194;5.112;2023-04-19T12:29:36;10.32;;;2.78;;
49828;SDS011;35723;51.194;5.112;2023-04-19T12:32:02;8.25;;;2.55;;
49828;SDS011;35723;51.194;5.112;2023-04-19T12:34:29;10.00;;;2.90;;
49828;SDS011;35723;51.194;5.112;2023-04-19T12:36:55;5.57;;;2.70;;
49828;SDS011;35723;51.194;5.112;2023-04-19T12:39:20;5.97;;;2.50;;
49828;SDS011;35723;51.194;5.112;2023-04-19T12:41:46;15.25;;;2.60;;
49828;SDS011;35723;51.194;5.112;2023-04-19T12:44:13;9.45;;;2.80;;
49828;SDS011;35723;51.194;5.112;2023-04-19T12:46:39;8.20;;;2.45;;
49828;SDS011;35723;51.194;5.112;2023-04-19T12:49:05;6.45;;;2.67;;
49828;SDS011;35723;51.194;5.112;2023-04-19T12:51:31;8.23;;;2.95;;
49828;SDS011;35723;51.194;5.112;2023-04-19T12:53:57;6.00;;;2.70;;
49828;SDS011;35723;51.194;5.112;2023-04-19T12:56:22;6.65;;;2.72;;
49828;SDS011;35723;51.194;5.112;2023-04-19T12:58:48;7.63;;;2.92;;
49828;SDS011;35723;51.194;5.112;2023-04-19T13:01:14;12.65;;;2.90;;
49828;SDS011;35723;51.194;5.112;2023-04-19T13:03:39;9.38;;;2.70;;
49828;SDS011;35723;51.194;5.112;2023-04-19T13:06:05;7.22;;;2.80;;
49828;SDS011;35723;51.194;5.112;2023-04-19T13:08:31;12.75;;;2.90;;
49828;SDS011;35723;51.194;5.112;2023-04-19T13:10:56;9.57;;;2.80;;
49828;SDS011;35723;51.194;5.112;2023-04-19T13:13:25;9.15;;;2.85;;
49828;SDS011;35723;51.194;5.112;2023-04-19T13:15:51;6.82;;;2.78;;
49828;SDS011;35723;51.194;5.112;2023-04-19T13:18:17;8.40;;;2.50;;
49828;SDS011;35723;51.194;5.112;2023-04-19T13:20:43;5.28;;;2.63;;
49828;SDS011;35723;51.194;5.112;2023-04-19T13:23:09;7.07;;;2.80;;
49828;SDS011;35723;51.194;5.112;2023-04-19T13:25:34;5.93;;;2.70;;
49828;SDS011;35723;51.194;5.112;2023-04-19T13:28:00;9.02;;;2.55;;
49828;SDS011;35723;51.194;5.112;2023-04-19T13:30:26;7.18;;;2.88;;
49828;SDS011;35723;51.194;5.112;2023-04-19T13:32:52;6.65;;;2.72;;
49828;SDS011;35723;51.194;5.112;2023-04-19T13:35:17;9.25;;;3.03;;
49828;SDS011;35723;51.194;5.112;2023-04-19T13:37:43;5.03;;;2.63;;
49828;SDS011;35723;51.194;5.112;2023-04-19T13:40:11;8.10;;;2.70;;
49828;SDS011;35723;51.194;5.112;2023-04-19T13:42:37;7.50;;;2.90;;
49828;SDS011;35723;51.194;5.112;2023-04-19T13:45:02;5.80;;;2.67;;
49828;SDS011;35723;51.194;5.112;2023-04-19T13:47:28;9.25;;;2.85;;
49828;SDS011;35723;51.194;5.112;2023-04-19T13:49:54;6.95;;;2.80;;
49828;SDS011;35723;51.194;5.112;2023-04-19T13:52:20;5.85;;;2.60;;
49828;SDS011;35723;51.194;5.112;2023-04-19T13:54:47;8.35;;;2.67;;
49828;SDS011;35723;51.194;5.112;2023-04-19T13:57:13;6.25;;;2.63;;
49828;SDS011;35723;51.194;5.112;2023-04-19T13:59:39;9.82;;;2.90;;
49828;SDS011;35723;51.194;5.112;2023-04-19T14:02:05;11.00;;;2.90;;
49828;SDS011;35723;51.194;5.112;2023-04-19T14:04:31;11.88;;;3.00;;
49828;SDS011;35723;51.194;5.112;2023-04-19T14:06:57;9.27;;;2.92;;
49828;SDS011;35723;51.194;5.112;2023-04-19T14:09:22;9.88;;;2.78;;
49828;SDS011;35723;51.194;5.112;2023-04-19T14:11:48;9.10;;;3.13;;
49828;SDS011;35723;51.194;5.112;2023-04-19T14:14:14;8.55;;;2.80;;
49828;SDS011;35723;51.194;5.112;2023-04-19T14:16:40;8.75;;;2.60;;
49828;SDS011;35723;51.194;5.112;2023-04-19T14:19:06;9.65;;;3.28;;
49828;SDS011;35723;51.194;5.112;2023-04-19T14:21:31;14.00;;;3.25;;
49828;SDS011;35723;51.194;5.112;2023-04-19T14:23:57;11.20;;;3.03;;
49828;SDS011;35723;51.194;5.112;2023-04-19T14:26:23;9.57;;;3.13;;
49828;SDS011;35723;51.194;5.112;2023-04-19T14:28:49;11.13;;;3.22;;
49828;SDS011;35723;51.194;5.112;2023-04-19T14:31:15;6.30;;;2.80;;
49828;SDS011;35723;51.194;5.112;2023-04-19T14:33:40;14.50;;;3.10;;
49828;SDS011;35723;51.194;5.112;2023-04-19T14:36:06;9.10;;;3.10;;
49828;SDS011;35723;51.194;5.112;2023-04-19T14:38:32;6.80;;;2.88;;
49828;SDS011;35723;51.194;5.112;2023-04-19T14:40:58;6.85;;;3.10;;
49828;SDS011;35723;51.194;5.112;2023-04-19T14:43:24;10.73;;;3.00;;
49828;SDS011;35723;51.194;5.112;2023-04-19T14:45:50;8.50;;;3.40;;
49828;SDS011;35723;51.194;5.112;2023-04-19T14:48:16;8.57;;;3.03;;
49828;SDS011;35723;51.194;5.112;2023-04-19T14:50:42;10.65;;;3.20;;
49828;SDS011;35723;51.194;5.112;2023-04-19T14:53:07;11.15;;;3.13;;